Time;durP1;ratioP1;P1;durP2;ratioP2;P2;SDS_P1;SDS_P2;PMS_P1;PMS_P2;Temp;Humidity;BMP_temperature;BMP_pressure;BME280_temperature;BME280_humidity;BME280_pressure;Samples;Min_cycle;Max_cycle;Signal;HPM_P1;HPM_P2
2022/07/20 00:00:04;;;;;;;;;27.25;26.50;;;;;29.39;33.20;101036.72;5042073;28;45302;-66
2022/07/20 00:02:29;;;;;;;;;26.25;22.50;;;;;29.29;33.25;101018.56;5023546;28;45280;-66
2022/07/20 00:04:54;;;;;;;;;26.75;22.75;;;;;29.29;32.90;101013.16;5057677;28;45256;-66
2022/07/20 00:07:20;;;;;;;;;28.00;25.50;;;;;29.28;33.49;101016.88;5043741;28;45282;-66
2022/07/20 00:12:29;;;;;;;;;25.00;23.50;;;;;29.19;33.92;101034.78;5061848;28;45425;-67
2022/07/20 00:14:54;;;;;;;;;23.25;23.25;;;;;29.13;33.74;101050.66;5043751;28;46768;-66
2022/07/20 00:17:20;;;;;;;;;27.75;23.75;;;;;29.10;34.06;101078.00;5042560;28;45272;-66
2022/07/20 00:19:45;;;;;;;;;25.50;24.50;;;;;29.01;34.12;101080.50;5062002;28;45205;-66
2022/07/20 00:22:10;;;;;;;;;28.25;25.50;;;;;28.98;34.18;101123.19;5061733;28;45455;-66
2022/07/20 00:24:36;;;;;;;;;25.50;25.25;;;;;28.86;34.51;101142.19;5061580;28;46282;-66
2022/07/20 00:27:02;;;;;;;;;27.25;24.75;;;;;28.77;35.44;101129.47;5043469;28;45254;-66
2022/07/20 00:29:27;;;;;;;;;29.50;28.00;;;;;28.73;35.34;101174.00;5061146;28;45315;-66
2022/07/20 00:31:52;;;;;;;;;24.25;21.25;;;;;28.61;35.85;101175.84;5061251;28;45169;-65
2022/07/20 00:34:18;;;;;;;;;32.75;26.50;;;;;28.54;35.65;101170.09;5061484;28;46245;-65
2022/07/20 00:36:43;;;;;;;;;27.75;24.25;;;;;28.48;36.12;101167.06;5061483;28;45450;-64
2022/07/20 00:39:09;;;;;;;;;27.00;24.00;;;;;28.42;36.00;101148.66;5061627;28;45159;-62
2022/07/20 00:41:34;;;;;;;;;27.25;27.25;;;;;28.32;36.52;101126.94;5043198;28;45377;-62
2022/07/20 00:44:09;;;;;;;;;25.75;23.25;;;;;28.21;35.88;101090.00;5061434;28;45451;-62
2022/07/20 00:46:39;;;;;;;;;25.00;22.75;;;;;28.13;36.41;101065.50;5060760;28;45315;-61
2022/07/20 00:49:06;;;;;;;;;21.50;19.75;;;;;28.01;36.45;101052.00;5061287;28;45292;-61
2022/07/20 00:51:33;;;;;;;;;24.50;24.50;;;;;27.98;36.34;101051.41;5061128;28;45429;-62
2022/07/20 00:53:58;;;;;;;;;24.25;22.75;;;;;27.88;37.12;101045.91;5061183;28;45237;-61
2022/07/20 00:56:24;;;;;;;;;20.50;20.50;;;;;27.80;36.56;101030.34;5061019;28;45436;-61
2022/07/20 00:58:49;;;;;;;;;26.25;24.00;;;;;27.76;37.34;101010.00;5061187;28;45349;-61
2022/07/20 01:01:16;;;;;;;;;27.75;25.50;;;;;27.70;36.86;101016.75;5060594;28;45471;-60
2022/07/20 01:03:42;;;;;;;;;29.50;27.00;;;;;27.67;37.32;101013.44;5059745;28;46396;-60
2022/07/20 01:06:08;;;;;;;;;28.00;26.75;;;;;27.64;36.98;101019.09;5042772;28;45501;-61
2022/07/20 01:08:34;;;;;;;;;27.00;25.50;;;;;27.60;37.11;101017.63;5061169;28;45304;-61
2022/07/20 01:11:00;;;;;;;;;28.25;25.75;;;;;27.58;37.27;101033.94;5060780;28;45166;-61
2022/07/20 01:13:26;;;;;;;;;25.00;25.00;;;;;27.53;37.13;101046.97;5060847;28;45244;-61
2022/07/20 01:15:51;;;;;;;;;27.25;25.50;;;;;27.51;37.39;101030.91;5060351;28;45570;-60
2022/07/20 01:18:17;;;;;;;;;23.75;22.25;;;;;27.49;37.55;101032.00;5042968;28;45358;-60
2022/07/20 01:20:46;;;;;;;;;26.25;26.00;;;;;27.46;37.05;101027.72;5042558;28;45498;-60
2022/07/20 01:23:16;;;;;;;;;27.25;26.25;;;;;27.43;37.70;100997.44;5042589;28;47670;-60
2022/07/20 01:25:42;;;;;;;;;27.25;26.25;;;;;27.39;37.31;101002.19;5042501;28;45346;-60
2022/07/20 01:28:12;;;;;;;;;28.25;27.00;;;;;27.39;37.00;100984.16;5059721;28;45388;-61
2022/07/20 01:30:39;;;;;;;;;29.25;27.00;;;;;27.40;37.37;100979.66;5060437;28;45398;-60
2022/07/20 01:33:05;;;;;;;;;30.25;28.50;;;;;27.36;36.99;100989.81;5060321;28;45400;-60
2022/07/20 01:35:30;;;;;;;;;31.75;29.25;;;;;27.38;37.45;101009.44;5060300;28;45521;-60
2022/07/20 01:37:55;;;;;;;;;33.25;28.50;;;;;27.39;37.31;101018.38;5042676;28;45392;-61
2022/07/20 01:40:21;;;;;;;;;23.75;22.50;;;;;27.39;37.31;101035.44;5042339;28;45491;-61
2022/07/20 01:42:47;;;;;;;;;33.25;29.75;;;;;27.40;37.11;101017.41;5060345;28;45388;-61
2022/07/20 01:45:12;;;;;;;;;28.25;27.00;;;;;27.41;37.59;101008.34;5060357;28;45400;-62
2022/07/20 01:47:38;;;;;;;;;32.75;30.75;;;;;27.43;37.48;101009.06;5060063;28;45448;-62
2022/07/20 01:50:04;;;;;;;;;36.00;31.75;;;;;27.46;37.55;101026.84;5060148;28;45229;-62
2022/07/20 01:52:29;;;;;;;;;37.25;34.00;;;;;27.47;37.22;101045.63;5060380;28;46182;-61
2022/07/20 01:54:55;;;;;;;;;38.25;33.00;;;;;27.49;38.01;101062.53;5060149;28;45324;-61
2022/07/20 01:57:20;;;;;;;;;37.25;32.00;;;;;27.51;37.78;101076.78;5042343;28;45444;-62
2022/07/20 01:59:45;;;;;;;;;39.75;33.00;;;;;27.54;37.73;101095.41;5060016;28;45414;-61
2022/07/20 02:02:11;;;;;;;;;38.25;32.25;;;;;27.53;37.49;101104.50;5059784;28;46085;-61
2022/07/20 02:04:36;;;;;;;;;42.00;35.00;;;;;27.58;38.21;101141.88;5057914;28;45324;-62
2022/07/20 02:07:02;;;;;;;;;45.00;33.75;;;;;27.58;37.92;101139.19;5060364;28;45351;-61
2022/07/20 02:09:27;;;;;;;;;41.00;33.50;;;;;27.64;37.55;101116.25;5041849;28;45507;-61
2022/07/20 02:11:53;;;;;;;;;42.00;36.25;;;;;27.67;37.98;101089.00;5041648;28;47434;-61
2022/07/20 02:14:18;;;;;;;;;42.25;36.00;;;;;27.68;38.56;101079.94;5042008;28;46257;-62
2022/07/20 02:16:43;;;;;;;;;47.25;38.25;;;;;27.70;38.55;101076.13;5059709;28;45375;-62
2022/07/20 02:19:09;;;;;;;;;45.25;38.25;;;;;27.71;37.86;101064.34;5059920;28;45247;-61
2022/07/20 02:21:34;;;;;;;;;44.50;38.75;;;;;27.72;38.56;101089.50;5059779;28;46185;-61
2022/07/20 02:24:00;;;;;;;;;47.00;38.50;;;;;27.71;38.48;101137.22;5059777;28;45158;-62
2022/07/20 02:26:25;;;;;;;;;47.50;39.75;;;;;27.74;38.21;101138.81;5060038;28;45432;-61
2022/07/20 02:28:52;;;;;;;;;49.25;41.00;;;;;27.76;38.98;101125.19;5059890;28;45435;-61
2022/07/20 02:31:20;;;;;;;;;50.00;40.75;;;;;27.65;38.41;101109.88;5059353;28;45974;-62
2022/07/20 02:33:46;;;;;;;;;47.75;39.50;;;;;27.71;38.42;101112.06;5041569;28;45311;-61
2022/07/20 02:36:12;;;;;;;;;52.75;43.75;;;;;27.71;38.70;101128.25;5059930;28;45310;-61
2022/07/20 02:38:38;;;;;;;;;55.25;44.00;;;;;27.70;39.24;101137.38;5059658;28;45400;-61
2022/07/20 02:41:03;;;;;;;;;49.25;41.25;;;;;27.67;39.05;101143.88;5063185;28;47136;-61
2022/07/20 02:43:29;;;;;;;;;53.00;42.50;;;;;27.68;38.85;101155.50;5063120;28;45318;-61
2022/07/20 02:45:54;;;;;;;;;54.00;42.75;;;;;27.65;39.07;101153.06;5063032;28;46452;-61
2022/07/20 02:48:20;;;;;;;;;52.50;43.50;;;;;27.67;39.03;101169.97;5063111;28;45423;-61
2022/07/20 02:50:45;;;;;;;;;52.00;42.75;;;;;27.65;38.93;101161.19;5063059;28;45420;-62
2022/07/20 02:53:12;;;;;;;;;51.25;41.75;;;;;27.66;39.69;101165.56;5062988;28;45253;-62
2022/07/20 02:55:39;;;;;;;;;49.50;41.25;;;;;27.60;39.49;101176.84;5063307;28;45283;-62
2022/07/20 02:58:05;;;;;;;;;52.75;44.00;;;;;27.56;39.19;101190.59;5062453;28;45466;-62
2022/07/20 03:00:31;;;;;;;;;54.00;44.25;;;;;27.53;39.87;101220.53;5062833;28;45368;-62
2022/07/20 03:02:56;;;;;;;;;51.50;42.25;;;;;27.48;40.25;101243.47;5061189;28;46363;-62
2022/07/20 03:05:22;;;;;;;;;50.75;41.25;;;;;27.43;40.78;101259.16;5040337;28;45455;-62
2022/07/20 03:07:48;;;;;;;;;47.00;40.50;;;;;27.31;40.96;101261.78;5042541;28;45416;-61
2022/07/20 03:10:13;;;;;;;;;54.00;43.25;;;;;27.28;41.08;101253.91;5042630;28;46202;-62
2022/07/20 03:12:39;;;;;;;;;50.00;41.00;;;;;27.22;41.11;101252.56;5042449;28;45291;-62
2022/07/20 03:15:05;;;;;;;;;53.00;43.50;;;;;27.16;41.03;101268.38;5024828;28;45322;-62
2022/07/20 03:17:31;;;;;;;;;50.00;40.75;;;;;27.04;41.73;101276.41;5042278;28;45582;-62
2022/07/20 03:19:57;;;;;;;;;50.25;42.25;;;;;26.99;41.30;101266.94;5042516;28;45279;-62
2022/07/20 03:22:22;;;;;;;;;53.25;43.00;;;;;26.93;41.31;101274.53;5024565;28;45183;-62
2022/07/20 03:24:48;;;;;;;;;56.00;46.25;;;;;26.85;42.11;101270.69;5042491;28;45171;-62
2022/07/20 03:27:14;;;;;;;;;51.00;42.00;;;;;26.81;42.17;101261.09;5042370;28;45176;-62
2022/07/20 03:29:39;;;;;;;;;53.00;43.50;;;;;26.74;42.18;101261.56;5042336;28;45434;-62
2022/07/20 03:32:05;;;;;;;;;53.25;43.00;;;;;26.67;42.30;101257.56;5041940;28;45333;-62
2022/07/20 03:34:30;;;;;;;;;51.25;41.25;;;;;26.64;42.34;101267.72;5042616;28;45258;-62
2022/07/20 03:36:55;;;;;;;;;51.25;43.50;;;;;26.54;42.17;101268.41;5042137;28;45428;-63
2022/07/20 03:39:21;;;;;;;;;53.75;44.00;;;;;26.50;42.35;101276.81;5042281;28;46152;-64
2022/07/20 03:41:46;;;;;;;;;53.25;45.00;;;;;26.44;42.48;101284.38;5042118;28;45249;-64
2022/07/20 03:44:12;;;;;;;;;57.50;42.50;;;;;26.40;42.86;101292.78;5042407;28;45375;-63
2022/07/20 03:46:37;;;;;;;;;52.75;42.50;;;;;26.37;42.71;101285.78;5041650;28;45317;-63
2022/07/20 03:49:02;;;;;;;;;52.25;43.25;;;;;26.36;42.19;101291.28;5042062;28;46196;-62
2022/07/20 03:51:28;;;;;;;;;51.25;41.25;;;;;26.36;42.53;101304.75;5022936;28;45448;-62
2022/07/20 03:53:53;;;;;;;;;48.50;40.50;;;;;26.32;42.53;101306.81;5042352;28;45368;-62
2022/07/20 03:56:19;;;;;;;;;51.50;41.00;;;;;26.28;42.54;101325.03;5041858;28;46382;-62
2022/07/20 03:58:44;;;;;;;;;47.75;39.00;;;;;26.31;42.60;101331.19;5041817;28;45539;-62
2022/07/20 04:01:09;;;;;;;;;36.25;33.25;;;;;26.20;43.10;101335.50;5041380;28;45349;-62
2022/07/20 04:03:35;;;;;;;;;42.25;35.50;;;;;26.24;42.33;101331.59;5048227;28;45224;-62
2022/07/20 04:06:01;;;;;;;;;36.25;31.25;;;;;26.23;42.26;101318.25;5061730;28;45217;-63
2022/07/20 04:08:26;;;;;;;;;38.00;32.00;;;;;26.19;42.78;101288.00;5043705;28;47207;-62
2022/07/20 04:10:51;;;;;;;;;34.50;32.00;;;;;26.14;42.95;101327.84;5030249;28;45195;-63
2022/07/20 04:13:17;;;;;;;;;38.50;32.75;;;;;26.01;42.88;101329.66;5062339;28;45276;-63
2022/07/20 04:15:42;;;;;;;;;33.25;31.50;;;;;26.02;42.71;101323.31;5061374;28;45425;-63
2022/07/20 04:18:07;;;;;;;;;33.75;30.75;;;;;25.98;42.54;101311.03;5061867;28;45943;-63
2022/07/20 04:20:33;;;;;;;;;37.50;31.50;;;;;25.91;43.08;101268.41;5061602;28;46514;-63
2022/07/20 04:22:58;;;;;;;;;31.50;30.50;;;;;25.88;42.82;101243.53;5062028;28;45208;-63
2022/07/20 04:25:24;;;;;;;;;33.50;28.75;;;;;25.86;42.86;101253.53;5043387;28;45222;-63
2022/07/20 04:27:50;;;;;;;;;38.00;32.75;;;;;25.82;42.84;101265.47;5061660;28;45954;-63
2022/07/20 04:30:16;;;;;;;;;37.00;32.00;;;;;25.78;42.54;101281.00;5061525;28;45506;-63
2022/07/20 04:32:42;;;;;;;;;34.50;32.00;;;;;25.78;42.83;101281.00;5043094;28;45344;-63
2022/07/20 04:35:08;;;;;;;;;33.75;29.50;;;;;25.76;43.00;101272.16;5046109;28;45357;-63
2022/07/20 04:37:33;;;;;;;;;38.00;31.50;;;;;25.76;42.54;101273.03;5041332;28;45567;-64
2022/07/20 04:39:59;;;;;;;;;35.00;30.25;;;;;25.75;42.83;101239.00;5041235;28;45479;-63
2022/07/20 04:42:24;;;;;;;;;32.50;30.25;;;;;25.74;42.88;101212.22;5041413;28;45233;-64
2022/07/20 04:44:49;;;;;;;;;32.00;27.75;;;;;25.77;42.64;101244.28;5041265;28;45295;-64
2022/07/20 04:47:15;;;;;;;;;32.00;30.00;;;;;25.76;43.06;101232.66;5040851;28;45246;-65
2022/07/20 04:49:40;;;;;;;;;33.25;31.00;;;;;25.77;42.72;101230.81;5023190;28;45398;-65
2022/07/20 04:52:05;;;;;;;;;29.00;27.50;;;;;25.72;43.16;101220.41;5041298;28;45286;-65
2022/07/20 04:54:31;;;;;;;;;32.50;28.75;;;;;25.75;43.13;101208.56;5041008;28;45180;-65
2022/07/20 04:56:56;;;;;;;;;38.25;33.25;;;;;25.77;43.01;101225.44;5041039;28;46149;-65
2022/07/20 04:59:21;;;;;;;;;35.25;32.25;;;;;25.76;43.13;101231.78;5040975;28;45260;-65
2022/07/20 05:01:47;;;;;;;;;33.25;27.25;;;;;25.75;43.30;101257.84;5040558;28;45313;-65
2022/07/20 05:04:13;;;;;;;;;31.75;29.00;;;;;25.74;43.10;101271.41;5052042;28;45443;-65
2022/07/20 05:06:39;;;;;;;;;34.00;32.00;;;;;25.75;43.29;101282.06;5060910;28;46516;-66
2022/07/20 05:09:07;;;;;;;;;33.25;30.00;;;;;25.75;43.46;101278.53;5060854;28;45321;-65
2022/07/20 05:11:33;;;;;;;;;31.75;28.50;;;;;25.72;43.30;101265.28;5042973;28;45321;-65
2022/07/20 05:13:58;;;;;;;;;30.25;26.25;;;;;25.70;43.14;101269.88;5060920;28;45507;-65
2022/07/20 05:16:24;;;;;;;;;27.00;22.25;;;;;25.64;43.01;101269.34;5025476;28;47106;-65
2022/07/20 05:18:49;;;;;;;;;31.00;26.00;;;;;25.61;43.67;101266.88;5060751;28;45232;-65
2022/07/20 05:21:14;;;;;;;;;27.50;25.50;;;;;25.50;43.53;101250.63;5061005;28;45230;-65
2022/07/20 05:23:40;;;;;;;;;28.75;26.00;;;;;25.48;42.86;101233.72;5042581;28;45265;-65
2022/07/20 05:26:05;;;;;;;;;22.75;20.50;;;;;25.43;43.48;101226.00;5060770;28;45229;-65
2022/07/20 05:28:31;;;;;;;;;25.75;24.25;;;;;25.37;43.54;101244.38;5060490;28;45306;-63
2022/07/20 05:30:56;;;;;;;;;26.25;23.75;;;;;25.29;43.20;101251.09;5060319;28;45169;-64
2022/07/20 05:33:22;;;;;;;;;26.75;23.25;;;;;25.25;42.76;101222.69;5042441;28;45957;-64
2022/07/20 05:35:51;;;;;;;;;23.50;22.00;;;;;25.19;43.19;101200.75;5040445;28;46154;-64
2022/07/20 05:38:18;;;;;;;;;29.75;25.50;;;;;25.08;43.18;101209.53;5040314;28;45296;-64
2022/07/20 05:40:43;;;;;;;;;26.50;23.50;;;;;25.10;43.21;101254.19;5034137;28;45334;-63
2022/07/20 05:43:09;;;;;;;;;27.75;25.25;;;;;25.07;43.09;101258.91;5059341;28;45279;-63
2022/07/20 05:45:34;;;;;;;;;26.50;22.25;;;;;25.03;43.17;101255.59;5040454;28;45284;-63
2022/07/20 05:48:00;;;;;;;;;23.75;21.75;;;;;25.03;42.93;101222.44;5039803;28;45337;-63
2022/07/20 05:50:25;;;;;;;;;25.50;23.25;;;;;25.02;43.26;101231.47;5034046;28;45513;-62
2022/07/20 05:52:51;;;;;;;;;18.25;18.25;;;;;24.98;42.89;101260.38;5045938;28;45613;-62
2022/07/20 05:55:16;;;;;;;;;20.50;16.50;;;;;24.99;43.04;101279.13;5040210;28;45367;-62
2022/07/20 05:57:42;;;;;;;;;20.50;20.25;;;;;25.01;43.04;101286.22;5039904;28;45170;-63
2022/07/20 06:00:08;;;;;;;;;22.75;21.25;;;;;24.99;43.04;101268.34;5040183;28;45225;-63
2022/07/20 06:02:33;;;;;;;;;19.00;19.00;;;;;24.97;43.17;101242.56;5039525;28;45499;-62
2022/07/20 06:04:58;;;;;;;;;21.50;19.50;;;;;24.98;42.97;101217.38;5057467;28;45286;-62
2022/07/20 06:07:24;;;;;;;;;17.25;17.25;;;;;24.96;43.25;101254.25;5060160;28;45234;-62
2022/07/20 06:09:49;;;;;;;;;21.00;19.25;;;;;24.96;42.89;101257.78;5042010;28;45225;-62
2022/07/20 06:12:14;;;;;;;;;19.50;18.50;;;;;24.95;42.82;101269.50;5042034;28;45354;-62
2022/07/20 06:14:40;;;;;;;;;18.75;17.75;;;;;24.91;43.16;101264.47;5059395;28;46368;-62
2022/07/20 06:17:05;;;;;;;;;21.75;20.00;;;;;24.90;43.14;101277.03;5059650;28;45312;-62
2022/07/20 06:19:30;;;;;;;;;22.00;21.75;;;;;24.87;43.32;101292.47;5059949;28;45378;-62
2022/07/20 06:21:56;;;;;;;;;23.50;21.00;;;;;24.60;43.00;101270.00;5060050;28;45391;-62
2022/07/20 06:24:21;;;;;;;;;19.00;18.00;;;;;24.82;43.23;101341.19;5041676;28;47331;-62
2022/07/20 06:26:46;;;;;;;;;22.75;22.00;;;;;24.78;43.44;101350.38;5029248;28;45337;-62
2022/07/20 06:29:13;;;;;;;;;21.25;21.25;;;;;24.76;42.97;101363.06;5039699;28;45463;-62
2022/07/20 06:31:38;;;;;;;;;20.00;18.50;;;;;24.72;43.15;101388.44;5021409;28;45619;-62
2022/07/20 06:34:06;;;;;;;;;21.25;18.75;;;;;24.66;43.46;101389.66;5021430;28;46774;-63
2022/07/20 06:36:32;;;;;;;;;21.00;19.50;;;;;24.64;43.74;101376.34;5039615;28;45434;-63
2022/07/20 06:38:57;;;;;;;;;22.00;17.75;;;;;24.62;43.38;101361.25;5021542;28;45295;-63
2022/07/20 06:41:22;;;;;;;;;20.75;19.00;;;;;24.58;43.68;101384.75;5039579;28;45248;-63
2022/07/20 06:43:48;;;;;;;;;22.00;21.50;;;;;24.52;44.00;101397.72;5039330;28;45424;-63
2022/07/20 06:46:13;;;;;;;;;21.50;20.75;;;;;24.45;44.09;101392.72;5021230;28;45298;-63
2022/07/20 06:48:40;;;;;;;;;21.50;20.50;;;;;24.40;44.20;101413.63;5021494;28;45274;-63
2022/07/20 06:51:05;;;;;;;;;19.50;19.25;;;;;24.36;44.46;101400.50;5039363;28;45283;-63
2022/07/20 06:53:30;;;;;;;;;12.00;9.00;;;;;24.32;44.50;101387.22;5039139;28;45743;-63
2022/07/20 06:55:56;;;;;;;;;20.25;18.75;;;;;24.29;44.32;101365.09;5039405;28;45339;-63
2022/07/20 06:58:21;;;;;;;;;16.00;16.00;;;;;24.25;44.55;101363.53;5039205;28;45388;-63
2022/07/20 07:00:46;;;;;;;;;16.50;14.75;;;;;24.23;44.69;101384.28;5038981;28;45315;-62
2022/07/20 07:03:12;;;;;;;;;17.50;17.50;;;;;24.17;44.79;101386.34;5041888;28;45350;-63
2022/07/20 07:05:37;;;;;;;;;22.25;19.25;;;;;24.16;44.56;101368.56;5038032;28;45368;-63
2022/07/20 07:08:03;;;;;;;;;22.50;21.75;;;;;24.13;44.87;101365.19;5039152;28;45365;-62
2022/07/20 07:10:28;;;;;;;;;20.50;16.50;;;;;24.12;44.81;101355.41;5039116;28;45546;-62
2022/07/20 07:12:53;;;;;;;;;23.75;20.75;;;;;24.09;44.57;101339.50;5020955;28;45440;-63
2022/07/20 07:15:19;;;;;;;;;18.75;16.25;;;;;24.06;44.82;101328.94;5021308;28;45450;-63
2022/07/20 07:17:44;;;;;;;;;18.50;17.50;;;;;24.06;44.94;101343.19;5021449;28;45457;-62
2022/07/20 07:20:10;;;;;;;;;19.75;19.00;;;;;23.99;44.59;101332.00;5039171;28;45195;-63
2022/07/20 07:22:36;;;;;;;;;18.50;16.00;;;;;23.95;44.75;101335.84;5037918;28;46074;-64
2022/07/20 07:25:02;;;;;;;;;15.50;15.50;;;;;23.94;44.95;101295.69;5039616;28;45269;-65
2022/07/20 07:27:28;;;;;;;;;21.25;18.50;;;;;23.92;45.21;101270.75;5024492;28;45305;-65
2022/07/20 07:29:53;;;;;;;;;22.50;18.00;;;;;23.91;44.95;101291.38;5042430;28;45229;-66
2022/07/20 07:32:18;;;;;;;;;21.75;19.25;;;;;23.90;45.11;101331.66;5041882;28;45242;-65
2022/07/20 07:34:44;;;;;;;;;23.25;20.75;;;;;23.88;44.89;101347.00;5042353;28;45214;-64
2022/07/20 07:37:09;;;;;;;;;20.75;18.50;;;;;23.84;45.13;101352.53;5042341;28;45234;-64
2022/07/20 07:39:34;;;;;;;;;23.25;20.25;;;;;23.83;45.33;101348.13;5024354;28;45506;-64
2022/07/20 07:42:00;;;;;;;;;17.00;15.00;;;;;23.81;45.47;101354.53;5042120;28;45384;-64
2022/07/20 07:44:25;;;;;;;;;22.50;18.25;;;;;23.78;44.90;101347.53;5042259;28;45317;-64
2022/07/20 07:46:51;;;;;;;;;22.50;19.50;;;;;23.78;45.07;101338.66;5041870;28;45364;-63
2022/07/20 07:49:16;;;;;;;;;21.50;20.00;;;;;23.74;45.60;101332.59;5024156;28;45515;-63
2022/07/20 07:51:42;;;;;;;;;21.00;20.75;;;;;23.75;45.11;101328.97;5007292;28;46984;-63
2022/07/20 07:54:07;;;;;;;;;20.75;18.50;;;;;23.70;45.46;101337.28;5042021;28;45286;-63
2022/07/20 07:56:34;;;;;;;;;16.50;16.50;;;;;23.74;45.41;101348.69;5042017;28;45262;-63
2022/07/20 07:59:00;;;;;;;;;18.75;18.75;;;;;23.72;45.32;101355.13;5024007;28;45471;-63
2022/07/20 08:01:25;;;;;;;;;20.00;19.50;;;;;23.69;45.83;101362.38;5023203;28;46451;-63
2022/07/20 08:03:51;;;;;;;;;19.75;19.75;;;;;23.69;45.80;101377.63;5050161;28;45270;-64
2022/07/20 08:06:16;;;;;;;;;19.50;15.25;;;;;23.67;45.87;101390.25;5062028;28;45149;-64
2022/07/20 08:08:41;;;;;;;;;24.50;20.75;;;;;23.68;46.03;101405.41;5062110;28;45411;-64
2022/07/20 08:11:07;;;;;;;;;20.00;20.00;;;;;23.65;46.24;101413.66;5043520;28;46891;-64
2022/07/20 08:13:32;;;;;;;;;20.75;19.75;;;;;23.64;46.30;101393.97;5062031;28;45222;-63
2022/07/20 08:15:58;;;;;;;;;21.50;20.25;;;;;23.64;46.16;101390.44;5043521;28;45264;-62
2022/07/20 08:18:23;;;;;;;;;23.75;22.50;;;;;23.61;46.90;101386.13;5061783;28;45230;-64
2022/07/20 08:20:49;;;;;;;;;24.75;23.25;;;;;23.63;46.61;101407.50;5061590;28;46279;-64
2022/07/20 08:23:14;;;;;;;;;21.50;19.75;;;;;23.57;46.94;101408.75;5060721;28;45285;-64
2022/07/20 08:25:40;;;;;;;;;21.00;20.25;;;;;23.52;47.44;101413.47;5061695;28;45606;-64
2022/07/20 08:28:13;;;;;;;;;19.50;19.50;;;;;23.53;47.36;101407.16;5061704;28;45266;-64
2022/07/20 08:30:41;;;;;;;;;17.00;16.50;;;;;23.47;46.88;101396.78;5043036;28;48322;-64
2022/07/20 08:33:07;;;;;;;;;23.25;20.00;;;;;23.46;47.28;101377.16;5049869;28;45396;-64
2022/07/20 08:35:32;;;;;;;;;24.75;24.00;;;;;23.49;47.35;101392.22;5041273;28;45501;-64
2022/07/20 08:37:58;;;;;;;;;24.00;20.50;;;;;23.48;47.07;101395.84;5040743;28;45349;-63
2022/07/20 08:40:24;;;;;;;;;27.00;24.00;;;;;23.53;47.15;101393.75;5054384;28;45312;-62
2022/07/20 08:42:50;;;;;;;;;24.50;21.25;;;;;23.52;47.33;101400.06;5050964;28;45257;-62
2022/07/20 08:45:15;;;;;;;;;22.25;20.00;;;;;23.56;47.22;101411.47;5041257;28;45159;-62
2022/07/20 08:47:42;;;;;;;;;21.00;19.75;;;;;23.51;47.22;101411.78;5040857;28;45209;-62
2022/07/20 08:50:08;;;;;;;;;20.25;16.50;;;;;23.53;47.28;101407.16;5041049;28;46273;-62
2022/07/20 08:52:33;;;;;;;;;23.50;21.50;;;;;23.57;47.42;101386.41;5040923;28;45157;-62
2022/07/20 08:54:58;;;;;;;;;22.75;20.00;;;;;23.61;47.12;101391.50;5041107;28;45158;-62
2022/07/20 08:57:25;;;;;;;;;21.75;20.00;;;;;23.59;46.89;101404.13;5041154;28;45566;-62
2022/07/20 08:59:50;;;;;;;;;23.00;20.25;;;;;23.59;47.01;101398.75;5040597;28;46347;-62
2022/07/20 09:02:16;;;;;;;;;21.00;19.00;;;;;23.64;47.78;101395.81;5033713;28;45289;-63
2022/07/20 09:04:59;;;;;;;;;22.50;22.50;;;;;23.61;46.85;101386.13;5058349;28;45250;-62
2022/07/20 09:07:45;;;;;;;;;17.25;11.75;;;;;23.68;47.51;101398.25;5042771;28;46495;-63
2022/07/20 09:10:14;;;;;;;;;25.50;21.25;;;;;23.68;47.24;101382.13;5060873;28;48265;-62
2022/07/20 09:12:57;;;;;;;;;22.75;22.75;;;;;23.66;47.67;101386.72;5042560;28;45921;-62
2022/07/20 09:15:33;;;;;;;;;25.50;24.75;;;;;23.69;47.45;101375.78;5060981;28;45340;-62
2022/07/20 09:18:10;;;;;;;;;24.50;22.75;;;;;23.71;47.43;101365.00;5060735;28;45468;-62
2022/07/20 09:20:42;;;;;;;;;22.00;20.50;;;;;23.71;47.06;101375.72;5042504;28;45205;-62
2022/07/20 09:23:11;;;;;;;;;23.25;21.25;;;;;23.64;47.67;101390.44;5042708;28;45399;-62
2022/07/20 09:25:37;;;;;;;;;23.25;22.75;;;;;23.61;47.86;101391.50;5060559;28;45245;-62
2022/07/20 09:28:02;;;;;;;;;25.00;23.00;;;;;23.64;47.45;101395.81;5042497;28;45308;-62
2022/07/20 09:30:28;;;;;;;;;19.50;19.50;;;;;23.59;47.19;101400.59;5060145;28;47381;-62
2022/07/20 09:33:00;;;;;;;;;17.75;17.25;;;;;23.54;47.87;101398.16;5060591;28;45334;-62
2022/07/20 09:35:34;;;;;;;;;24.00;20.75;;;;;23.51;47.76;101403.72;5060622;28;45260;-62
2022/07/20 09:38:03;;;;;;;;;18.75;16.00;;;;;23.44;47.90;101408.56;5042602;28;45273;-61
2022/07/20 09:40:39;;;;;;;;;19.00;19.00;;;;;23.32;47.75;101404.78;5028639;28;46161;-62
2022/07/20 09:43:04;;;;;;;;;14.25;14.25;;;;;23.36;48.09;101419.75;5034306;28;45203;-63
2022/07/20 09:45:30;;;;;;;;;21.50;19.75;;;;;23.25;48.10;101422.16;5040164;28;45330;-62
2022/07/20 09:48:06;;;;;;;;;22.50;17.00;;;;;23.24;48.07;101425.78;5039720;28;45539;-62
2022/07/20 09:50:35;;;;;;;;;22.00;17.75;;;;;23.16;47.67;101418.19;5039543;28;45330;-64
2022/07/20 09:53:00;;;;;;;;;19.25;18.50;;;;;23.11;47.84;101435.47;5039978;28;45432;-64
2022/07/20 09:55:26;;;;;;;;;19.75;18.75;;;;;23.03;48.41;101451.94;5022352;28;45307;-67
2022/07/20 09:57:53;;;;;;;;;20.25;18.75;;;;;22.87;48.88;101443.94;5022022;28;45264;-69
2022/07/20 10:00:19;;;;;;;;;19.50;19.50;;;;;22.75;48.85;101432.03;5022033;28;47784;-68
2022/07/20 10:02:47;;;;;;;;;25.00;22.00;;;;;22.61;49.01;101431.94;5039455;28;45470;-66
2022/07/20 10:05:13;;;;;;;;;21.75;16.75;;;;;22.58;48.83;101450.84;5041642;28;45331;-66
2022/07/20 10:07:42;;;;;;;;;14.75;14.75;;;;;22.46;48.88;101444.34;5057793;28;45488;-66
2022/07/20 10:10:09;;;;;;;;;18.75;17.75;;;;;22.42;48.79;101438.28;5031844;28;45512;-67
2022/07/20 10:12:34;;;;;;;;;20.75;19.50;;;;;22.36;49.11;101438.56;5043615;28;45170;-68
2022/07/20 10:15:00;;;;;;;;;19.75;19.75;;;;;22.37;49.74;101448.38;5037594;28;45669;-67
2022/07/20 10:17:30;;;;;;;;;18.50;18.50;;;;;22.37;49.72;101451.06;5041235;28;45479;-68
2022/07/20 10:19:56;;;;;;;;;18.75;17.00;;;;;22.38;49.41;101461.69;5041865;28;46313;-68
2022/07/20 10:22:22;;;;;;;;;19.00;18.50;;;;;22.37;49.25;101464.44;5059895;28;45368;-70
2022/07/20 10:25:17;;;;;;;;;19.00;16.75;;;;;22.40;49.49;101466.94;5059985;28;45313;-67
2022/07/20 10:27:43;;;;;;;;;19.00;19.00;;;;;22.34;49.64;101457.41;5041923;28;45486;-67
2022/07/20 10:30:17;;;;;;;;;19.25;18.25;;;;;22.42;49.58;101458.84;5041446;28;47023;-67
2022/07/20 10:32:51;;;;;;;;;19.25;17.75;;;;;22.42;49.33;101453.50;5059532;28;45285;-68
2022/07/20 10:35:29;;;;;;;;;17.75;16.00;;;;;22.48;49.88;101442.47;5059789;28;45299;-68
2022/07/20 10:37:58;;;;;;;;;20.50;19.75;;;;;22.46;49.78;101431.81;5041843;28;45545;-67
2022/07/20 10:40:28;;;;;;;;;21.25;21.00;;;;;22.52;49.64;101434.16;5059371;28;45401;-67
2022/07/20 10:43:06;;;;;;;;;20.75;20.25;;;;;22.54;49.51;101432.28;5041594;28;46172;-67
2022/07/20 10:45:32;;;;;;;;;23.75;19.50;;;;;22.55;49.30;101422.41;5059410;28;45342;-68
2022/07/20 10:48:13;;;;;;;;;20.50;18.75;;;;;22.61;49.46;101424.75;5059403;28;45356;-67
2022/07/20 10:50:43;;;;;;;;;22.00;19.50;;;;;22.64;49.36;101426.41;5059529;28;45237;-68
2022/07/20 10:53:15;;;;;;;;;23.75;23.25;;;;;22.65;49.96;101423.63;5059472;28;45399;-67
2022/07/20 10:55:50;;;;;;;;;21.00;19.50;;;;;22.62;49.55;101439.91;5059594;28;45288;-68
2022/07/20 10:58:24;;;;;;;;;22.00;16.50;;;;;22.64;49.42;101446.03;5041482;28;45397;-68
2022/07/20 11:01:09;;;;;;;;;17.25;17.25;;;;;22.64;49.74;101443.38;5042616;28;48141;-68
2022/07/20 11:03:37;;;;;;;;;22.75;19.00;;;;;22.64;49.59;101459.44;5044628;28;45581;-68
2022/07/20 11:06:10;;;;;;;;;24.00;18.25;;;;;22.65;49.76;101433.50;5041472;28;45356;-68
2022/07/20 11:08:37;;;;;;;;;20.50;19.75;;;;;22.64;49.80;101448.72;5042049;28;45355;-68